Time;durP1;ratioP1;P1;durP2;ratioP2;P2;SDS_P1;SDS_P2;PMS_P1;PMS_P2;Temp;Humidity;BMP_temperature;BMP_pressure;BME280_temperature;BME280_humidity;BME280_pressure;Samples;Min_cycle;Max_cycle;Signal;HPM_P1;HPM_P2
2021/07/08 00:01:02;;;;;;;5.33;2.67;;;;;;;;;;5080338;28;20206;-66
2021/07/08 00:03:32;;;;;;;5.83;3.67;;;;;;;;;;5079885;28;20222;-66
2021/07/08 00:06:00;;;;;;;8.40;5.53;;;;;;;;;;5080223;28;20210;-66
2021/07/08 00:08:28;;;;;;;10.50;4.87;;;;;;;;;;5079438;28;20263;-66
2021/07/08 00:10:56;;;;;;;6.03;4.10;;;;;;;;;;5079419;28;20210;-66
2021/07/08 00:13:24;;;;;;;4.13;2.60;;;;;;;;;;5079701;28;20203;-66
2021/07/08 00:15:53;;;;;;;2.67;1.90;;;;;;;;;;5079790;28;20210;-66
2021/07/08 00:18:21;;;;;;;2.10;1.50;;;;;;;;;;5079918;28;20260;-66
2021/07/08 00:20:50;;;;;;;1.37;1.27;;;;;;;;;;5079682;28;20214;-66
2021/07/08 00:23:19;;;;;;;1.00;1.00;;;;;;;;;;5079835;28;20256;-66
2021/07/08 00:25:48;;;;;;;1.10;1.10;;;;;;;;;;5079616;28;20206;-66
2021/07/08 00:28:16;;;;;;;0.90;0.90;;;;;;;;;;5079811;28;20215;-66
2021/07/08 00:30:44;;;;;;;1.60;0.90;;;;;;;;;;5079513;28;20202;-66
2021/07/08 00:33:12;;;;;;;1.80;1.00;;;;;;;;;;5079578;28;20696;-66
2021/07/08 00:35:40;;;;;;;0.93;0.90;;;;;;;;;;5079485;28;20206;-66
2021/07/08 00:38:09;;;;;;;1.23;1.00;;;;;;;;;;5079552;28;20649;-66
2021/07/08 00:40:37;;;;;;;1.23;0.80;;;;;;;;;;5078424;28;20657;-66
2021/07/08 00:43:05;;;;;;;1.57;0.80;;;;;;;;;;5078854;28;20732;-66
2021/07/08 00:45:33;;;;;;;2.00;0.90;;;;;;;;;;5078441;28;20230;-66
2021/07/08 00:48:01;;;;;;;0.83;0.57;;;;;;;;;;5078623;28;20725;-66
2021/07/08 00:50:30;;;;;;;1.70;0.40;;;;;;;;;;5078179;28;20202;-66
2021/07/08 00:52:58;;;;;;;2.10;0.50;;;;;;;;;;5078517;28;20230;-66
2021/07/08 00:55:27;;;;;;;0.50;0.50;;;;;;;;;;5078054;28;20233;-66
2021/07/08 00:57:55;;;;;;;0.93;0.70;;;;;;;;;;5078486;28;20202;-66
2021/07/08 01:00:24;;;;;;;1.20;0.60;;;;;;;;;;5078545;28;20207;-66
2021/07/08 01:02:52;;;;;;;0.60;0.40;;;;;;;;;;5078424;28;20279;-66
2021/07/08 01:05:21;;;;;;;0.47;0.47;;;;;;;;;;5078018;28;20229;-66
2021/07/08 01:07:49;;;;;;;1.00;0.50;;;;;;;;;;5078343;28;20256;-66
2021/07/08 01:10:17;;;;;;;1.30;0.70;;;;;;;;;;5078398;28;20210;-66
2021/07/08 01:12:46;;;;;;;0.60;0.60;;;;;;;;;;5077831;28;20218;-66
2021/07/08 01:15:14;;;;;;;0.30;0.30;;;;;;;;;;5078528;28;20206;-66
2021/07/08 01:17:43;;;;;;;0.80;0.80;;;;;;;;;;5078105;28;20342;-66
2021/07/08 01:20:12;;;;;;;0.50;0.50;;;;;;;;;;5078589;28;20269;-66
2021/07/08 01:22:41;;;;;;;0.70;0.50;;;;;;;;;;5078423;28;20226;-66
2021/07/08 01:25:10;;;;;;;0.73;0.73;;;;;;;;;;5078340;28;20230;-66
2021/07/08 01:27:38;;;;;;;0.53;0.53;;;;;;;;;;5078539;28;20202;-66
2021/07/08 01:30:07;;;;;;;0.60;0.60;;;;;;;;;;5078881;28;20581;-66
2021/07/08 01:32:35;;;;;;;1.30;0.43;;;;;;;;;;5077657;28;20238;-66
2021/07/08 01:35:04;;;;;;;0.43;0.43;;;;;;;;;;5078605;28;20727;-66
2021/07/08 01:37:31;;;;;;;0.67;0.67;;;;;;;;;;5078346;28;20210;-66
2021/07/08 01:40:01;;;;;;;0.40;0.40;;;;;;;;;;5077990;28;20658;-66
2021/07/08 01:42:29;;;;;;;0.40;0.40;;;;;;;;;;5078001;28;20616;-66
2021/07/08 01:44:57;;;;;;;2.10;0.50;;;;;;;;;;5077828;28;20638;-66
2021/07/08 01:47:25;;;;;;;3.70;0.80;;;;;;;;;;5077868;28;20202;-66
2021/07/08 01:49:53;;;;;;;2.30;0.60;;;;;;;;;;5077518;28;20217;-66
2021/07/08 01:52:20;;;;;;;0.80;0.60;;;;;;;;;;5077427;28;20284;-66
2021/07/08 01:54:48;;;;;;;1.27;0.90;;;;;;;;;;5076795;28;20198;-66
2021/07/08 01:57:17;;;;;;;0.50;0.50;;;;;;;;;;5077064;28;20213;-66
2021/07/08 01:59:45;;;;;;;0.63;0.63;;;;;;;;;;5077508;28;20202;-66
2021/07/08 02:02:13;;;;;;;0.70;0.60;;;;;;;;;;5077558;28;20252;-66
2021/07/08 02:04:40;;;;;;;0.30;0.30;;;;;;;;;;5077564;28;20314;-66
2021/07/08 02:07:08;;;;;;;0.53;0.53;;;;;;;;;;5077527;28;20214;-66
2021/07/08 02:09:36;;;;;;;0.60;0.60;;;;;;;;;;5077590;28;20601;-65
2021/07/08 02:12:04;;;;;;;0.50;0.50;;;;;;;;;;5077652;28;20224;-65
2021/07/08 02:14:33;;;;;;;0.33;0.33;;;;;;;;;;5077983;28;20206;-65
2021/07/08 02:17:01;;;;;;;0.30;0.30;;;;;;;;;;5077790;28;20210;-65
2021/07/08 02:19:28;;;;;;;0.60;0.60;;;;;;;;;;5077534;28;20251;-65
2021/07/08 02:21:56;;;;;;;0.47;0.40;;;;;;;;;;5077007;28;20276;-65
2021/07/08 02:24:24;;;;;;;0.60;0.60;;;;;;;;;;5076970;28;20210;-65
2021/07/08 02:26:51;;;;;;;1.20;1.20;;;;;;;;;;5077132;28;20259;-65
2021/07/08 02:29:22;;;;;;;0.60;0.60;;;;;;;;;;5076604;28;20209;-65
2021/07/08 02:31:51;;;;;;;0.97;0.60;;;;;;;;;;5076767;28;20635;-65
2021/07/08 02:34:19;;;;;;;33.07;25.70;;;;;;;;;;5076815;28;20236;-66
2021/07/08 02:36:47;;;;;;;3.27;2.67;;;;;;;;;;5075505;28;20202;-68
2021/07/08 02:39:14;;;;;;;0.80;0.73;;;;;;;;;;5076004;28;20252;-69
2021/07/08 02:41:43;;;;;;;0.70;0.67;;;;;;;;;;5076303;28;20240;-68
2021/07/08 02:44:11;;;;;;;0.40;0.40;;;;;;;;;;5078091;28;20646;-68
2021/07/08 02:46:38;;;;;;;0.43;0.43;;;;;;;;;;5081025;28;20241;-69
2021/07/08 02:49:08;;;;;;;1.33;0.30;;;;;;;;;;5081319;28;20608;-69
2021/07/08 02:51:35;;;;;;;0.50;0.50;;;;;;;;;;5080950;28;20618;-69
2021/07/08 02:54:03;;;;;;;0.60;0.60;;;;;;;;;;5080835;28;20198;-68
2021/07/08 02:56:31;;;;;;;0.70;0.70;;;;;;;;;;5080349;28;20661;-68
2021/07/08 02:58:58;;;;;;;2.30;0.53;;;;;;;;;;5080431;28;20225;-68
2021/07/08 03:01:26;;;;;;;2.53;0.40;;;;;;;;;;5080008;28;20213;-68
2021/07/08 03:03:54;;;;;;;0.40;0.40;;;;;;;;;;5079976;28;20210;-68
2021/07/08 03:06:23;;;;;;;0.70;0.70;;;;;;;;;;5075708;28;20253;-69
2021/07/08 03:08:51;;;;;;;0.60;0.60;;;;;;;;;;5079257;28;20214;-68
2021/07/08 03:11:20;;;;;;;0.30;0.30;;;;;;;;;;5079840;28;20222;-68
2021/07/08 03:13:48;;;;;;;0.50;0.50;;;;;;;;;;5079815;28;20202;-68
2021/07/08 03:16:16;;;;;;;0.70;0.70;;;;;;;;;;5079800;28;20229;-68
2021/07/08 03:18:44;;;;;;;0.50;0.50;;;;;;;;;;5080631;28;20199;-68
2021/07/08 03:21:13;;;;;;;1.23;0.53;;;;;;;;;;5080176;28;20256;-68
2021/07/08 03:23:42;;;;;;;0.50;0.50;;;;;;;;;;5081274;28;20206;-69
2021/07/08 03:26:10;;;;;;;0.47;0.47;;;;;;;;;;5080799;28;20226;-68
2021/07/08 03:28:38;;;;;;;1.07;0.60;;;;;;;;;;5080464;28;20555;-68
2021/07/08 03:31:05;;;;;;;0.70;0.70;;;;;;;;;;5080542;28;20206;-68
2021/07/08 03:33:33;;;;;;;0.97;0.60;;;;;;;;;;5083211;28;20222;-68
2021/07/08 03:36:01;;;;;;;0.40;0.40;;;;;;;;;;5083603;28;20209;-68
2021/07/08 03:38:29;;;;;;;0.40;0.40;;;;;;;;;;5080311;28;20562;-68
2021/07/08 03:41:00;;;;;;;1.77;0.70;;;;;;;;;;5080412;28;20205;-68
2021/07/08 03:43:29;;;;;;;0.73;0.43;;;;;;;;;;5067551;28;20221;-68
2021/07/08 03:45:58;;;;;;;0.77;0.67;;;;;;;;;;5080101;28;20660;-68
2021/07/08 03:48:26;;;;;;;0.73;0.67;;;;;;;;;;5080048;28;20218;-68
2021/07/08 03:50:58;;;;;;;0.70;0.50;;;;;;;;;;5080462;28;20208;-68
2021/07/08 03:53:26;;;;;;;1.30;0.70;;;;;;;;;;5080342;28;20198;-68
2021/07/08 03:55:54;;;;;;;1.17;0.80;;;;;;;;;;5079181;28;20202;-68
2021/07/08 03:58:23;;;;;;;1.03;0.70;;;;;;;;;;5079874;28;20607;-68
2021/07/08 04:00:51;;;;;;;0.53;0.53;;;;;;;;;;5080169;28;20217;-70
2021/07/08 04:03:19;;;;;;;0.50;0.50;;;;;;;;;;5079600;28;20230;-70
2021/07/08 04:05:47;;;;;;;2.33;0.60;;;;;;;;;;5079798;28;20230;-70
2021/07/08 04:08:16;;;;;;;0.63;0.60;;;;;;;;;;5079997;28;20244;-68
2021/07/08 04:10:45;;;;;;;1.17;0.70;;;;;;;;;;5077028;28;20658;-68
2021/07/08 04:13:14;;;;;;;0.50;0.50;;;;;;;;;;5074556;28;20283;-69
2021/07/08 04:15:43;;;;;;;0.67;0.67;;;;;;;;;;5079747;28;20240;-69
2021/07/08 04:18:11;;;;;;;1.97;1.00;;;;;;;;;;5079498;28;20264;-68
2021/07/08 04:20:40;;;;;;;0.70;0.70;;;;;;;;;;5080275;28;20538;-69
2021/07/08 04:23:08;;;;;;;1.37;0.87;;;;;;;;;;5079990;28;20222;-68
2021/07/08 04:25:37;;;;;;;1.57;0.63;;;;;;;;;;5079725;28;20206;-68
2021/07/08 04:28:05;;;;;;;0.70;0.70;;;;;;;;;;5079375;28;20232;-68
2021/07/08 04:30:33;;;;;;;1.03;0.80;;;;;;;;;;5079752;28;20213;-68
2021/07/08 04:33:03;;;;;;;2.20;1.10;;;;;;;;;;5079279;28;20325;-68
2021/07/08 04:35:32;;;;;;;1.43;0.60;;;;;;;;;;5079364;28;20206;-68
2021/07/08 04:38:00;;;;;;;0.80;0.80;;;;;;;;;;5081319;28;20202;-69
2021/07/08 04:40:28;;;;;;;0.93;0.80;;;;;;;;;;5085482;28;20202;-69
2021/07/08 04:42:56;;;;;;;1.87;0.80;;;;;;;;;;5079573;28;20706;-69
2021/07/08 04:45:24;;;;;;;0.63;0.60;;;;;;;;;;5079510;28;20654;-69
2021/07/08 04:47:51;;;;;;;0.70;0.70;;;;;;;;;;5079481;28;20263;-69
2021/07/08 04:50:22;;;;;;;0.93;0.93;;;;;;;;;;5079120;28;20213;-69
2021/07/08 04:52:50;;;;;;;1.17;1.07;;;;;;;;;;5079263;28;20226;-68
2021/07/08 04:55:21;;;;;;;0.90;0.90;;;;;;;;;;5078967;28;20241;-68
2021/07/08 04:57:48;;;;;;;1.33;0.90;;;;;;;;;;5079009;28;20202;-68
2021/07/08 05:00:18;;;;;;;0.73;0.73;;;;;;;;;;5078744;28;20228;-69
2021/07/08 05:02:46;;;;;;;0.87;0.70;;;;;;;;;;5078606;28;20229;-68
2021/07/08 05:05:14;;;;;;;2.50;0.90;;;;;;;;;;5078373;28;20233;-68
2021/07/08 05:07:43;;;;;;;2.13;1.50;;;;;;;;;;5077118;28;20222;-68
2021/07/08 05:10:12;;;;;;;2.27;1.17;;;;;;;;;;5077800;28;20202;-68
2021/07/08 05:12:40;;;;;;;1.17;0.90;;;;;;;;;;5077843;28;20255;-68
2021/07/08 05:15:08;;;;;;;0.73;0.73;;;;;;;;;;5078357;28;20255;-69
2021/07/08 05:17:36;;;;;;;1.30;1.03;;;;;;;;;;5078242;28;20202;-68
2021/07/08 05:20:05;;;;;;;1.90;0.90;;;;;;;;;;5078431;28;20213;-68
2021/07/08 05:22:33;;;;;;;1.70;0.60;;;;;;;;;;5078530;28;20234;-69
2021/07/08 05:25:03;;;;;;;1.73;1.00;;;;;;;;;;5078248;28;20206;-68
2021/07/08 05:27:31;;;;;;;0.93;0.90;;;;;;;;;;5078304;28;20230;-68
2021/07/08 05:29:59;;;;;;;2.60;1.10;;;;;;;;;;5078258;28;20615;-68
2021/07/08 05:32:27;;;;;;;1.40;0.93;;;;;;;;;;5078153;28;20234;-65
2021/07/08 05:34:55;;;;;;;2.83;1.10;;;;;;;;;;5078527;28;20608;-66
2021/07/08 05:37:24;;;;;;;2.03;1.00;;;;;;;;;;5073718;28;20191;-64
2021/07/08 05:39:51;;;;;;;0.63;0.63;;;;;;;;;;5074461;28;20248;-65
2021/07/08 05:42:20;;;;;;;0.80;0.80;;;;;;;;;;5073502;28;20244;-65
2021/07/08 05:44:48;;;;;;;8.57;1.77;;;;;;;;;;5073534;28;20731;-65
2021/07/08 05:47:16;;;;;;;0.90;0.90;;;;;;;;;;5071560;28;20252;-65
2021/07/08 05:49:56;;;;;;;1.60;0.83;;;;;;;;;;5074034;28;21527;-65
2021/07/08 05:52:24;;;;;;;0.93;0.70;;;;;;;;;;5073823;28;20280;-64
2021/07/08 05:54:51;;;;;;;2.67;0.83;;;;;;;;;;5071949;28;20210;-65
2021/07/08 05:57:20;;;;;;;2.03;1.00;;;;;;;;;;5073680;28;20210;-64
2021/07/08 05:59:48;;;;;;;1.10;1.00;;;;;;;;;;5075234;28;20210;-65
2021/07/08 06:02:16;;;;;;;1.23;1.13;;;;;;;;;;5073809;28;20230;-64
2021/07/08 06:04:44;;;;;;;1.80;0.90;;;;;;;;;;5069076;28;20198;-65
2021/07/08 06:07:11;;;;;;;0.80;0.80;;;;;;;;;;5071525;28;20217;-65
2021/07/08 06:09:39;;;;;;;2.60;0.90;;;;;;;;;;5068668;28;20260;-65
2021/07/08 06:12:07;;;;;;;0.90;0.90;;;;;;;;;;5067850;28;20276;-64
2021/07/08 06:14:36;;;;;;;1.60;0.90;;;;;;;;;;5066139;28;20716;-65
2021/07/08 06:17:07;;;;;;;0.70;0.70;;;;;;;;;;5066682;28;20194;-67
2021/07/08 06:19:34;;;;;;;1.03;0.90;;;;;;;;;;5073514;28;20202;-67
2021/07/08 06:22:02;;;;;;;1.20;1.10;;;;;;;;;;5074920;28;20222;-67
2021/07/08 06:24:30;;;;;;;0.80;0.80;;;;;;;;;;5074775;28;20731;-67
2021/07/08 06:26:58;;;;;;;1.00;1.00;;;;;;;;;;5068280;28;20226;-67
2021/07/08 06:29:25;;;;;;;0.90;0.90;;;;;;;;;;5066571;28;20233;-67
2021/07/08 06:31:54;;;;;;;0.93;0.80;;;;;;;;;;5068167;28;20226;-67
2021/07/08 06:34:22;;;;;;;1.10;1.00;;;;;;;;;;5067387;28;20354;-67
2021/07/08 06:36:50;;;;;;;0.77;0.77;;;;;;;;;;5062900;28;20647;-67
2021/07/08 06:39:17;;;;;;;1.37;0.90;;;;;;;;;;5068548;28;20206;-67
2021/07/08 06:41:45;;;;;;;4.27;1.40;;;;;;;;;;5065686;28;20652;-67
2021/07/08 06:44:13;;;;;;;1.30;1.20;;;;;;;;;;5069812;28;20211;-67
2021/07/08 06:46:41;;;;;;;2.20;1.10;;;;;;;;;;5068017;28;20211;-67
2021/07/08 06:49:10;;;;;;;3.30;2.00;;;;;;;;;;5069986;28;20203;-67
2021/07/08 06:51:38;;;;;;;5.17;1.60;;;;;;;;;;5074363;28;20708;-68
2021/07/08 06:54:06;;;;;;;4.70;1.07;;;;;;;;;;5072870;28;20209;-68
2021/07/08 06:56:34;;;;;;;3.20;1.43;;;;;;;;;;5072273;28;20658;-67
2021/07/08 06:59:01;;;;;;;4.07;1.60;;;;;;;;;;5072741;28;20216;-67
2021/07/08 07:01:29;;;;;;;1.43;1.30;;;;;;;;;;5069193;28;20249;-66
2021/07/08 07:03:57;;;;;;;5.03;1.97;;;;;;;;;;5068706;28;20203;-66
2021/07/08 07:06:26;;;;;;;1.27;1.17;;;;;;;;;;5075227;28;20209;-65
2021/07/08 07:08:54;;;;;;;4.23;1.83;;;;;;;;;;5073160;28;20582;-65
2021/07/08 07:11:21;;;;;;;2.23;1.40;;;;;;;;;;5072966;28;20611;-65
2021/07/08 07:13:50;;;;;;;6.23;1.63;;;;;;;;;;5067893;28;20210;-65
2021/07/08 07:16:18;;;;;;;5.30;2.40;;;;;;;;;;5071020;28;20199;-66
2021/07/08 07:18:46;;;;;;;2.77;1.47;;;;;;;;;;5072540;28;20225;-65
2021/07/08 07:21:14;;;;;;;3.30;1.53;;;;;;;;;;5069325;28;20252;-66
2021/07/08 07:23:43;;;;;;;5.37;1.63;;;;;;;;;;5059711;28;20257;-65
2021/07/08 07:26:11;;;;;;;4.57;2.07;;;;;;;;;;5065157;28;20271;-66
2021/07/08 07:28:39;;;;;;;3.27;1.80;;;;;;;;;;5062651;28;20313;-63
2021/07/08 07:31:07;;;;;;;1.67;1.57;;;;;;;;;;5070043;28;20241;-66
2021/07/08 07:33:35;;;;;;;3.17;1.70;;;;;;;;;;5076606;28;20235;-66
2021/07/08 07:36:03;;;;;;;9.20;1.73;;;;;;;;;;5071489;28;20556;-66
2021/07/08 07:38:31;;;;;;;4.03;2.07;;;;;;;;;;5070795;28;20581;-66
2021/07/08 07:41:00;;;;;;;1.90;1.70;;;;;;;;;;5073301;28;20245;-66
2021/07/08 07:43:27;;;;;;;3.47;1.60;;;;;;;;;;5073394;28;20203;-66
2021/07/08 07:45:55;;;;;;;1.67;1.30;;;;;;;;;;5073891;28;20247;-65
2021/07/08 07:48:23;;;;;;;7.43;1.60;;;;;;;;;;5073282;28;20236;-64
2021/07/08 07:50:51;;;;;;;4.30;1.43;;;;;;;;;;5068468;28;20202;-64
2021/07/08 07:53:19;;;;;;;8.27;1.80;;;;;;;;;;5067917;28;20226;-64
2021/07/08 07:55:48;;;;;;;2.10;1.90;;;;;;;;;;5070790;28;20198;-64
2021/07/08 07:58:17;;;;;;;3.70;1.90;;;;;;;;;;5070785;28;20207;-64
2021/07/08 08:00:44;;;;;;;1.53;1.43;;;;;;;;;;5075765;28;20198;-66
2021/07/08 08:03:12;;;;;;;1.73;1.50;;;;;;;;;;5068625;28;20215;-65
2021/07/08 08:05:42;;;;;;;5.53;1.97;;;;;;;;;;5071797;28;20248;-64
2021/07/08 08:08:28;;;;;;;9.27;3.73;;;;;;;;;;5073401;28;20281;-64
2021/07/08 08:10:56;;;;;;;5.37;2.20;;;;;;;;;;5069829;28;20209;-66
2021/07/08 08:13:26;;;;;;;2.93;1.70;;;;;;;;;;5072422;28;20195;-66
2021/07/08 08:15:54;;;;;;;3.33;1.80;;;;;;;;;;5075767;28;20260;-66
2021/07/08 08:18:23;;;;;;;6.23;1.90;;;;;;;;;;5073914;28;20217;-67
2021/07/08 08:20:51;;;;;;;5.97;1.90;;;;;;;;;;5072679;28;20203;-66
2021/07/08 08:23:19;;;;;;;7.40;2.10;;;;;;;;;;5069571;28;20230;-64
2021/07/08 08:25:47;;;;;;;4.17;2.00;;;;;;;;;;5073942;28;20233;-64
2021/07/08 08:28:14;;;;;;;3.17;2.60;;;;;;;;;;5076835;28;20219;-64
2021/07/08 08:30:44;;;;;;;6.27;2.30;;;;;;;;;;5074589;28;20199;-65
2021/07/08 08:33:12;;;;;;;4.07;2.10;;;;;;;;;;5071665;28;20242;-65
2021/07/08 08:35:40;;;;;;;2.93;1.80;;;;;;;;;;5074185;28;20198;-65
2021/07/08 08:38:08;;;;;;;2.97;2.10;;;;;;;;;;5072648;28;20202;-65
2021/07/08 08:40:36;;;;;;;4.13;1.87;;;;;;;;;;5076638;28;20202;-65
2021/07/08 08:43:04;;;;;;;3.50;1.70;;;;;;;;;;5072887;28;20232;-65
2021/07/08 08:45:32;;;;;;;4.90;2.20;;;;;;;;;;5069425;28;20244;-65
2021/07/08 08:48:02;;;;;;;3.33;2.30;;;;;;;;;;5075378;28;20214;-66
2021/07/08 08:50:31;;;;;;;2.83;2.13;;;;;;;;;;5077491;28;20573;-66
2021/07/08 08:52:59;;;;;;;2.00;1.73;;;;;;;;;;5076013;28;20560;-64
2021/07/08 08:55:27;;;;;;;2.17;1.97;;;;;;;;;;5071412;28;20333;-64
2021/07/08 08:57:55;;;;;;;4.67;1.90;;;;;;;;;;5066269;28;20269;-65
2021/07/08 09:00:42;;;;;;;6.07;2.00;;;;;;;;;;5063683;28;20211;-67
2021/07/08 09:03:14;;;;;;;2.20;1.90;;;;;;;;;;5067317;28;20239;-67
2021/07/08 09:05:43;;;;;;;1.70;1.60;;;;;;;;;;5065448;28;20218;-67
2021/07/08 09:08:15;;;;;;;6.17;2.43;;;;;;;;;;5069249;28;20285;-67
2021/07/08 09:10:44;;;;;;;2.90;2.10;;;;;;;;;;5067845;28;20552;-67
2021/07/08 09:13:12;;;;;;;1.70;1.60;;;;;;;;;;5075105;28;20227;-66
2021/07/08 09:15:40;;;;;;;4.13;1.80;;;;;;;;;;5070331;28;20216;-65
2021/07/08 09:18:08;;;;;;;2.17;1.87;;;;;;;;;;5072700;28;20214;-66
2021/07/08 09:20:38;;;;;;;2.60;1.80;;;;;;;;;;5071904;28;20199;-67
2021/07/08 09:23:14;;;;;;;2.57;2.17;;;;;;;;;;5070521;28;20308;-67
2021/07/08 09:25:43;;;;;;;2.97;2.63;;;;;;;;;;5067170;28;20235;-67
2021/07/08 09:28:22;;;;;;;5.27;1.73;;;;;;;;;;5070495;28;20578;-67
2021/07/08 09:30:59;;;;;;;4.30;2.10;;;;;;;;;;5070038;28;20243;-67
2021/07/08 09:33:35;;;;;;;4.43;1.77;;;;;;;;;;5074182;28;20269;-66
2021/07/08 09:36:15;;;;;;;4.20;2.23;;;;;;;;;;5072568;28;20208;-66
2021/07/08 09:38:56;;;;;;;3.13;1.53;;;;;;;;;;5071834;28;20682;-65
2021/07/08 09:41:28;;;;;;;3.83;1.80;;;;;;;;;;5070477;28;20688;-65
2021/07/08 09:43:55;;;;;;;7.43;1.83;;;;;;;;;;5072934;28;20605;-67
2021/07/08 09:46:33;;;;;;;1.80;1.70;;;;;;;;;;5071341;28;20802;-67
2021/07/08 09:49:05;;;;;;;2.53;1.50;;;;;;;;;;5074277;28;20232;-65
2021/07/08 09:51:35;;;;;;;1.83;1.60;;;;;;;;;;5071549;28;20286;-67
2021/07/08 09:54:07;;;;;;;4.97;2.00;;;;;;;;;;5067429;28;20219;-67
2021/07/08 09:56:45;;;;;;;4.43;2.07;;;;;;;;;;5074347;28;20208;-67
2021/07/08 09:59:13;;;;;;;2.73;2.10;;;;;;;;;;5068826;28;20221;-65
2021/07/08 10:01:42;;;;;;;3.63;1.80;;;;;;;;;;5073897;28;20598;-66
2021/07/08 10:04:10;;;;;;;13.20;2.00;;;;;;;;;;5076181;28;20216;-65
2021/07/08 10:06:40;;;;;;;4.17;2.00;;;;;;;;;;5076403;28;20198;-65
2021/07/08 10:09:07;;;;;;;4.20;1.70;;;;;;;;;;5070101;28;20232;-65
2021/07/08 10:11:35;;;;;;;3.17;1.97;;;;;;;;;;5066434;28;20232;-66
2021/07/08 10:14:04;;;;;;;3.53;2.23;;;;;;;;;;5073074;28;20267;-66
2021/07/08 10:16:33;;;;;;;4.87;2.23;;;;;;;;;;5070021;28;20208;-65
2021/07/08 10:19:03;;;;;;;4.47;2.33;;;;;;;;;;5071972;28;20205;-65
2021/07/08 10:21:31;;;;;;;3.57;2.47;;;;;;;;;;5070213;28;20231;-65
2021/07/08 10:24:01;;;;;;;4.10;1.83;;;;;;;;;;5071086;28;20266;-66
2021/07/08 10:26:29;;;;;;;3.07;2.10;;;;;;;;;;5066387;28;20206;-65
2021/07/08 10:28:57;;;;;;;2.63;2.20;;;;;;;;;;5066960;28;20252;-65
2021/07/08 10:31:25;;;;;;;4.93;2.30;;;;;;;;;;5070416;28;20229;-65
2021/07/08 10:34:09;;;;;;;6.10;2.57;;;;;;;;;;5071570;28;20324;-66
2021/07/08 10:36:37;;;;;;;2.00;1.90;;;;;;;;;;5067708;28;20197;-65
2021/07/08 10:39:07;;;;;;;5.77;2.00;;;;;;;;;;5073654;28;20203;-66
2021/07/08 10:41:49;;;;;;;3.90;1.97;;;;;;;;;;5072169;28;20628;-67
2021/07/08 10:44:37;;;;;;;3.00;2.23;;;;;;;;;;5068662;28;20213;-66
2021/07/08 10:47:05;;;;;;;2.97;2.00;;;;;;;;;;5070377;28;20204;-66
2021/07/08 10:49:36;;;;;;;6.40;1.90;;;;;;;;;;5073792;28;20235;-66
2021/07/08 10:52:04;;;;;;;7.67;2.27;;;;;;;;;;5072648;28;20231;-65
2021/07/08 10:54:33;;;;;;;3.10;1.90;;;;;;;;;;5074817;28;20208;-66
2021/07/08 10:57:02;;;;;;;2.00;1.90;;;;;;;;;;5071775;28;20207;-66
2021/07/08 10:59:39;;;;;;;2.10;1.90;;;;;;;;;;5072392;28;20196;-66
2021/07/08 11:02:07;;;;;;;4.20;2.33;;;;;;;;;;5074520;28;20289;-66
2021/07/08 11:04:46;;;;;;;2.20;2.00;;;;;;;;;;5074080;28;20235;-66
2021/07/08 11:07:15;;;;;;;3.00;1.90;;;;;;;;;;5076629;28;20241;-66
2021/07/08 11:09:57;;;;;;;2.63;2.20;;;;;;;;;;5078885;28;20270;-66
2021/07/08 11:12:29;;;;;;;6.83;2.60;;;;;;;;;;5078507;28;20677;-66
2021/07/08 11:14:57;;;;;;;5.10;3.17;;;;;;;;;;5072209;28;20578;-66
2021/07/08 11:17:25;;;;;;;7.37;3.50;;;;;;;;;;5071891;28;20200;-65
2021/07/08 11:19:54;;;;;;;3.00;2.43;;;;;;;;;;5074922;28;20222;-65
2021/07/08 11:22:43;;;;;;;6.90;2.90;;;;;;;;;;5068434;28;20283;-65
2021/07/08 11:25:12;;;;;;;3.20;2.60;;;;;;;;;;5071116;28;20725;-64
2021/07/08 11:27:45;;;;;;;8.17;2.97;;;;;;;;;;5071015;28;20210;-64
2021/07/08 11:30:29;;;;;;;3.97;2.07;;;;;;;;;;5075989;28;20231;-64
2021/07/08 11:32:59;;;;;;;1.80;1.50;;;;;;;;;;5071238;28;20241;-65
2021/07/08 11:35:30;;;;;;;2.77;2.10;;;;;;;;;;5073592;28;20206;-65
2021/07/08 11:38:01;;;;;;;2.80;1.80;;;;;;;;;;5073867;28;20205;-65
2021/07/08 11:40:35;;;;;;;3.33;1.60;;;;;;;;;;5071296;28;20194;-65
2021/07/08 11:43:11;;;;;;;3.53;1.83;;;;;;;;;;5071015;28;20587;-65
2021/07/08 11:45:39;;;;;;;3.10;1.87;;;;;;;;;;5068669;28;20567;-65
2021/07/08 11:48:07;;;;;;;1.77;1.67;;;;;;;;;;5072774;28;20246;-65
2021/07/08 11:50:36;;;;;;;2.80;1.53;;;;;;;;;;5075447;28;20225;-64
2021/07/08 11:53:08;;;;;;;2.27;1.80;;;;;;;;;;5070805;28;20224;-64
2021/07/08 11:55:37;;;;;;;2.63;1.60;;;;;;;;;;5074858;28;20215;-65
2021/07/08 11:58:05;;;;;;;3.30;1.90;;;;;;;;;;5074131;28;20238;-64
2021/07/08 12:00:35;;;;;;;1.63;1.53;;;;;;;;;;5075870;28;20229;-64
2021/07/08 12:03:03;;;;;;;3.20;1.70;;;;;;;;;;5075758;28;20642;-64
2021/07/08 12:05:31;;;;;;;4.97;1.83;;;;;;;;;;5074617;28;20216;-65
2021/07/08 12:08:03;;;;;;;3.47;1.90;;;;;;;;;;5077888;28;20203;-65
2021/07/08 12:10:31;;;;;;;2.00;1.63;;;;;;;;;;5073699;28;20221;-64
2021/07/08 12:13:01;;;;;;;2.07;1.83;;;;;;;;;;5076901;28;20221;-64
2021/07/08 12:15:30;;;;;;;1.93;1.80;;;;;;;;;;5075547;28;20699;-65
2021/07/08 12:17:58;;;;;;;3.53;1.70;;;;;;;;;;5076001;28;20206;-65
2021/07/08 12:20:35;;;;;;;3.40;1.80;;;;;;;;;;5073456;28;20271;-64
2021/07/08 12:23:04;;;;;;;3.20;1.70;;;;;;;;;;5075846;28;20689;-64
2021/07/08 12:25:32;;;;;;;2.53;1.97;;;;;;;;;;5074527;28;20209;-64
2021/07/08 12:28:01;;;;;;;3.23;1.83;;;;;;;;;;5073513;28;20201;-64
2021/07/08 12:30:30;;;;;;;1.87;1.50;;;;;;;;;;5076065;28;20213;-65
2021/07/08 12:33:11;;;;;;;1.73;1.37;;;;;;;;;;5074457;28;20239;-64
2021/07/08 12:35:40;;;;;;;1.60;1.47;;;;;;;;;;5078386;28;20235;-65
2021/07/08 12:38:08;;;;;;;1.90;1.70;;;;;;;;;;5077511;28;20208;-64
2021/07/08 12:40:36;;;;;;;2.43;1.43;;;;;;;;;;5070456;28;20204;-64
2021/07/08 12:43:09;;;;;;;4.40;2.70;;;;;;;;;;5081600;28;20238;-64
2021/07/08 12:45:39;;;;;;;4.30;1.63;;;;;;;;;;5073112;28;20253;-64
2021/07/08 12:48:11;;;;;;;3.37;2.00;;;;;;;;;;5068929;28;20260;-65
2021/07/08 12:50:41;;;;;;;1.50;1.40;;;;;;;;;;5073115;28;20244;-66
2021/07/08 12:53:11;;;;;;;1.60;1.50;;;;;;;;;;5072907;28;20248;-65
2021/07/08 12:55:40;;;;;;;2.93;1.70;;;;;;;;;;5075872;28;20208;-65
2021/07/08 12:58:10;;;;;;;1.50;1.40;;;;;;;;;;5076324;28;20212;-65
2021/07/08 13:00:38;;;;;;;1.47;1.47;;;;;;;;;;5072503;28;20230;-65
2021/07/08 13:03:06;;;;;;;1.90;1.80;;;;;;;;;;5081652;28;20228;-65
2021/07/08 13:05:35;;;;;;;2.20;1.70;;;;;;;;;;5069095;28;22078;-65
2021/07/08 13:08:06;;;;;;;1.53;1.20;;;;;;;;;;5077432;28;20571;-65
2021/07/08 13:10:35;;;;;;;2.23;1.63;;;;;;;;;;5076754;28;20257;-65
2021/07/08 13:13:02;;;;;;;1.77;1.53;;;;;;;;;;5076960;28;20281;-66
2021/07/08 13:15:33;;;;;;;2.00;1.63;;;;;;;;;;5071072;28;20214;-65
2021/07/08 13:18:01;;;;;;;3.07;1.67;;;;;;;;;;5073657;28;20808;-68
2021/07/08 13:20:29;;;;;;;1.53;1.40;;;;;;;;;;5072057;28;20606;-66
2021/07/08 13:22:57;;;;;;;1.70;1.60;;;;;;;;;;5076601;28;20225;-64
2021/07/08 13:25:26;;;;;;;1.57;1.47;;;;;;;;;;5073487;28;20265;-65
2021/07/08 13:27:54;;;;;;;1.60;1.50;;;;;;;;;;5061424;28;20217;-65
2021/07/08 13:30:27;;;;;;;2.07;1.70;;;;;;;;;;5066893;28;20259;-65
2021/07/08 13:33:05;;;;;;;4.67;1.60;;;;;;;;;;5066976;28;20298;-64
2021/07/08 13:35:37;;;;;;;3.10;1.40;;;;;;;;;;5071440;28;20205;-64
2021/07/08 13:38:12;;;;;;;3.07;2.00;;;;;;;;;;5072343;28;20210;-64
2021/07/08 13:40:40;;;;;;;2.63;1.73;;;;;;;;;;5073180;28;20209;-64
2021/07/08 13:43:12;;;;;;;7.17;4.00;;;;;;;;;;5074129;28;20214;-65
2021/07/08 13:45:40;;;;;;;1.53;1.40;;;;;;;;;;5073530;28;20201;-64
2021/07/08 13:48:18;;;;;;;1.97;1.70;;;;;;;;;;5075921;28;20202;-67
2021/07/08 13:50:46;;;;;;;6.10;1.90;;;;;;;;;;5074833;28;20604;-65
2021/07/08 13:53:14;;;;;;;1.50;1.40;;;;;;;;;;5071360;28;20221;-65
2021/07/08 13:55:42;;;;;;;2.90;1.50;;;;;;;;;;5072729;28;20251;-65
2021/07/08 13:58:09;;;;;;;1.50;1.40;;;;;;;;;;5075889;28;20208;-66
2021/07/08 14:00:37;;;;;;;1.93;1.60;;;;;;;;;;5067276;28;20669;-65
2021/07/08 14:03:05;;;;;;;1.60;1.50;;;;;;;;;;5062626;28;20698;-65
2021/07/08 14:05:34;;;;;;;2.23;1.40;;;;;;;;;;5068751;28;20207;-66
2021/07/08 14:08:02;;;;;;;2.07;1.60;;;;;;;;;;5067452;28;20196;-66
2021/07/08 14:10:29;;;;;;;1.80;1.50;;;;;;;;;;5067461;28;20254;-66
2021/07/08 14:12:57;;;;;;;1.50;1.40;;;;;;;;;;5069247;28;20237;-66
2021/07/08 14:15:25;;;;;;;2.50;1.50;;;;;;;;;;5070737;28;20207;-66
2021/07/08 14:17:56;;;;;;;2.17;1.50;;;;;;;;;;5071094;28;20253;-66
2021/07/08 14:20:24;;;;;;;1.50;1.40;;;;;;;;;;5073459;28;20226;-66
2021/07/08 14:22:53;;;;;;;2.33;1.30;;;;;;;;;;5075473;28;20714;-66
2021/07/08 14:25:21;;;;;;;3.73;1.43;;;;;;;;;;5071481;28;20195;-66
2021/07/08 14:27:49;;;;;;;1.50;1.40;;;;;;;;;;5074609;28;20202;-66
2021/07/08 14:30:17;;;;;;;3.23;1.77;;;;;;;;;;5074108;28;20627;-67
2021/07/08 14:32:45;;;;;;;1.90;1.70;;;;;;;;;;5074311;28;20230;-68
2021/07/08 14:35:13;;;;;;;7.53;2.37;;;;;;;;;;5073146;28;20217;-67
2021/07/08 14:37:40;;;;;;;1.50;1.40;;;;;;;;;;5069746;28;20204;-66
2021/07/08 14:40:11;;;;;;;1.63;1.53;;;;;;;;;;5075409;28;20574;-67
2021/07/08 14:42:46;;;;;;;3.07;1.57;;;;;;;;;;5075852;28;20228;-66
2021/07/08 14:45:14;;;;;;;1.97;1.87;;;;;;;;;;5077447;28;20680;-66
2021/07/08 14:47:43;;;;;;;1.90;1.67;;;;;;;;;;5076326;28;20266;-67
2021/07/08 14:50:10;;;;;;;1.63;1.37;;;;;;;;;;5078285;28;20214;-66
2021/07/08 14:52:39;;;;;;;1.73;1.50;;;;;;;;;;5078604;28;20590;-66
2021/07/08 14:55:08;;;;;;;2.33;1.50;;;;;;;;;;5077917;28;20199;-65